sensor_id;sensor_type;location;lat;lon;timestamp;P1;durP1;ratioP1;P2;durP2;ratioP2
33188;SDS011;52601;53.070;10.600;2022-09-21T14:47:59;0.17;;;0.17;;
33188;SDS011;52601;53.070;10.600;2022-09-21T14:50:57;2.30;;;0.20;;
33188;SDS011;52601;53.070;10.600;2022-09-21T14:56:53;0.93;;;0.15;;
33188;SDS011;52601;53.070;10.600;2022-09-21T15:00:15;1.83;;;0.22;;
33188;SDS011;52601;53.070;10.600;2022-09-21T15:03:25;0.40;;;0.20;;
33188;SDS011;52601;53.070;10.600;2022-09-21T15:06:18;0.50;;;0.20;;
33188;SDS011;52601;53.070;10.600;2022-09-21T15:09:40;1.60;;;0.20;;
33188;SDS011;52601;53.070;10.600;2022-09-21T15:16:12;0.20;;;0.20;;
33188;SDS011;52601;53.070;10.600;2022-09-21T15:19:25;0.45;;;0.15;;
33188;SDS011;52601;53.070;10.600;2022-09-21T15:22:15;0.80;;;0.20;;
33188;SDS011;52601;53.070;10.600;2022-09-21T15:25:10;0.43;;;0.30;;
33188;SDS011;52601;53.070;10.600;2022-09-21T15:27:57;0.20;;;0.20;;
33188;SDS011;52601;53.070;10.600;2022-09-21T15:30:44;1.40;;;0.60;;
33188;SDS011;52601;53.070;10.600;2022-09-21T15:33:30;0.30;;;0.20;;
33188;SDS011;52601;53.070;10.600;2022-09-21T15:36:21;0.30;;;0.20;;
33188;SDS011;52601;53.070;10.600;2022-09-21T15:45:00;0.40;;;0.20;;
33188;SDS011;52601;53.070;10.600;2022-09-21T15:47:57;0.35;;;0.10;;
33188;SDS011;52601;53.070;10.600;2022-09-21T15:50:43;0.20;;;0.20;;
33188;SDS011;52601;53.070;10.600;2022-09-21T15:53:34;1.60;;;0.30;;
33188;SDS011;52601;53.070;10.600;2022-09-21T15:56:26;0.55;;;0.20;;
33188;SDS011;52601;53.070;10.600;2022-09-21T15:59:13;3.53;;;0.40;;
33188;SDS011;52601;53.070;10.600;2022-09-21T16:02:09;0.60;;;0.25;;
33188;SDS011;52601;53.070;10.600;2022-09-21T16:04:56;0.10;;;0.10;;
33188;SDS011;52601;53.070;10.600;2022-09-21T16:07:41;0.70;;;0.30;;
33188;SDS011;52601;53.070;10.600;2022-09-21T16:13:19;0.10;;;0.10;;
33188;SDS011;52601;53.070;10.600;2022-09-21T16:16:26;1.50;;;0.65;;
33188;SDS011;52601;53.070;10.600;2022-09-21T16:19:11;1.27;;;0.38;;
33188;SDS011;52601;53.070;10.600;2022-09-21T16:22:02;2.42;;;0.38;;
33188;SDS011;52601;53.070;10.600;2022-09-21T16:24:49;0.30;;;0.20;;
33188;SDS011;52601;53.070;10.600;2022-09-21T16:27:36;0.50;;;0.40;;
33188;SDS011;52601;53.070;10.600;2022-09-21T16:30:41;0.10;;;0.10;;
33188;SDS011;52601;53.070;10.600;2022-09-21T16:33:35;1.75;;;0.10;;
33188;SDS011;52601;53.070;10.600;2022-09-21T16:39:14;0.20;;;0.20;;
33188;SDS011;52601;53.070;10.600;2022-09-21T16:42:01;0.20;;;0.20;;
33188;SDS011;52601;53.070;10.600;2022-09-21T16:44:49;0.70;;;0.30;;
33188;SDS011;52601;53.070;10.600;2022-09-21T16:47:35;0.65;;;0.20;;
33188;SDS011;52601;53.070;10.600;2022-09-21T16:50:22;0.20;;;0.10;;
33188;SDS011;52601;53.070;10.600;2022-09-21T16:53:08;0.60;;;0.17;;
33188;SDS011;52601;53.070;10.600;2022-09-21T16:55:53;3.22;;;0.30;;
33188;SDS011;52601;53.070;10.600;2022-09-21T16:58:39;0.30;;;0.30;;
33188;SDS011;52601;53.070;10.600;2022-09-21T17:01:27;0.65;;;0.10;;
33188;SDS011;52601;53.070;10.600;2022-09-21T17:04:13;0.25;;;0.17;;
33188;SDS011;52601;53.070;10.600;2022-09-21T17:06:58;0.50;;;0.15;;
33188;SDS011;52601;53.070;10.600;2022-09-21T17:09:45;0.50;;;0.20;;
33188;SDS011;52601;53.070;10.600;2022-09-21T17:12:32;2.05;;;0.20;;
33188;SDS011;52601;53.070;10.600;2022-09-21T17:15:18;0.80;;;0.20;;
33188;SDS011;52601;53.070;10.600;2022-09-21T17:18:04;0.10;;;0.10;;
33188;SDS011;52601;53.070;10.600;2022-09-21T17:20:50;0.65;;;0.30;;
33188;SDS011;52601;53.070;10.600;2022-09-21T17:23:36;0.65;;;0.65;;
33188;SDS011;52601;53.070;10.600;2022-09-21T17:26:22;0.10;;;0.10;;
33188;SDS011;52601;53.070;10.600;2022-09-21T17:29:17;0.20;;;0.20;;
33188;SDS011;52601;53.070;10.600;2022-09-21T17:32:08;0.90;;;0.30;;
33188;SDS011;52601;53.070;10.600;2022-09-21T17:34:59;0.20;;;0.17;;
33188;SDS011;52601;53.070;10.600;2022-09-21T17:38:02;0.80;;;0.30;;
33188;SDS011;52601;53.070;10.600;2022-09-21T17:40:48;1.40;;;0.30;;
33188;SDS011;52601;53.070;10.600;2022-09-21T17:46:53;1.50;;;0.30;;
33188;SDS011;52601;53.070;10.600;2022-09-21T17:49:43;1.00;;;0.30;;
33188;SDS011;52601;53.070;10.600;2022-09-21T17:52:29;0.10;;;0.10;;
33188;SDS011;52601;53.070;10.600;2022-09-21T17:55:33;0.73;;;0.43;;
33188;SDS011;52601;53.070;10.600;2022-09-21T18:01:28;2.20;;;0.53;;
33188;SDS011;52601;53.070;10.600;2022-09-21T18:04:18;0.20;;;0.20;;
33188;SDS011;52601;53.070;10.600;2022-09-21T18:07:03;0.80;;;0.30;;
33188;SDS011;52601;53.070;10.600;2022-09-21T18:09:49;1.40;;;0.70;;
33188;SDS011;52601;53.070;10.600;2022-09-21T18:12:42;1.00;;;0.22;;
33188;SDS011;52601;53.070;10.600;2022-09-21T18:15:41;0.60;;;0.30;;
33188;SDS011;52601;53.070;10.600;2022-09-21T18:18:36;0.60;;;0.40;;
33188;SDS011;52601;53.070;10.600;2022-09-21T18:21:27;0.30;;;0.30;;
33188;SDS011;52601;53.070;10.600;2022-09-21T18:27:03;0.77;;;0.40;;
33188;SDS011;52601;53.070;10.600;2022-09-21T18:29:49;0.30;;;0.30;;
33188;SDS011;52601;53.070;10.600;2022-09-21T18:32:42;0.30;;;0.22;;
33188;SDS011;52601;53.070;10.600;2022-09-21T18:35:42;0.73;;;0.37;;
33188;SDS011;52601;53.070;10.600;2022-09-21T18:38:42;0.80;;;0.40;;
33188;SDS011;52601;53.070;10.600;2022-09-21T18:45:07;0.50;;;0.20;;
33188;SDS011;52601;53.070;10.600;2022-09-21T18:53:53;0.30;;;0.30;;
33188;SDS011;52601;53.070;10.600;2022-09-21T18:56:40;0.93;;;0.40;;
33188;SDS011;52601;53.070;10.600;2022-09-21T18:59:26;0.60;;;0.30;;
33188;SDS011;52601;53.070;10.600;2022-09-21T19:02:17;0.60;;;0.37;;
33188;SDS011;52601;53.070;10.600;2022-09-21T19:05:04;1.50;;;0.30;;
33188;SDS011;52601;53.070;10.600;2022-09-21T19:07:55;0.70;;;0.30;;
33188;SDS011;52601;53.070;10.600;2022-09-21T19:10:48;0.60;;;0.20;;
33188;SDS011;52601;53.070;10.600;2022-09-21T19:13:41;0.90;;;0.43;;
33188;SDS011;52601;53.070;10.600;2022-09-21T19:26:41;0.83;;;0.37;;
33188;SDS011;52601;53.070;10.600;2022-09-21T19:32:16;2.70;;;0.60;;
33188;SDS011;52601;53.070;10.600;2022-09-21T19:35:17;1.80;;;0.40;;
33188;SDS011;52601;53.070;10.600;2022-09-21T19:38:08;1.98;;;0.43;;
33188;SDS011;52601;53.070;10.600;2022-09-21T19:40:58;0.93;;;0.63;;
33188;SDS011;52601;53.070;10.600;2022-09-21T19:43:49;1.70;;;0.50;;
33188;SDS011;52601;53.070;10.600;2022-09-21T19:46:52;2.40;;;0.65;;
33188;SDS011;52601;53.070;10.600;2022-09-21T19:53:04;2.60;;;0.90;;
33188;SDS011;52601;53.070;10.600;2022-09-21T19:56:10;5.32;;;0.80;;
33188;SDS011;52601;53.070;10.600;2022-09-21T19:59:18;1.47;;;0.87;;
33188;SDS011;52601;53.070;10.600;2022-09-21T20:02:24;0.93;;;0.80;;
33188;SDS011;52601;53.070;10.600;2022-09-21T20:11:28;1.50;;;0.40;;
33188;SDS011;52601;53.070;10.600;2022-09-21T20:14:29;1.50;;;0.50;;
33188;SDS011;52601;53.070;10.600;2022-09-21T20:17:23;2.85;;;0.40;;
33188;SDS011;52601;53.070;10.600;2022-09-21T20:20:19;0.68;;;0.30;;
33188;SDS011;52601;53.070;10.600;2022-09-21T20:23:09;0.68;;;0.40;;
33188;SDS011;52601;53.070;10.600;2022-09-21T20:26:02;1.00;;;0.60;;
33188;SDS011;52601;53.070;10.600;2022-09-21T20:28:51;0.57;;;0.50;;
33188;SDS011;52601;53.070;10.600;2022-09-21T20:31:38;1.33;;;0.50;;
33188;SDS011;52601;53.070;10.600;2022-09-21T20:34:24;3.03;;;0.65;;
33188;SDS011;52601;53.070;10.600;2022-09-21T20:37:10;2.70;;;0.80;;
33188;SDS011;52601;53.070;10.600;2022-09-21T20:39:57;1.02;;;0.60;;
33188;SDS011;52601;53.070;10.600;2022-09-21T20:42:43;1.25;;;0.57;;
33188;SDS011;52601;53.070;10.600;2022-09-21T20:45:28;0.55;;;0.50;;
33188;SDS011;52601;53.070;10.600;2022-09-21T20:48:14;1.88;;;0.50;;
33188;SDS011;52601;53.070;10.600;2022-09-21T20:51:00;0.85;;;0.60;;
33188;SDS011;52601;53.070;10.600;2022-09-21T20:53:49;0.80;;;0.53;;
33188;SDS011;52601;53.070;10.600;2022-09-21T20:56:35;2.03;;;0.40;;
33188;SDS011;52601;53.070;10.600;2022-09-21T20:59:21;1.58;;;0.47;;
33188;SDS011;52601;53.070;10.600;2022-09-21T21:02:08;1.08;;;0.70;;
33188;SDS011;52601;53.070;10.600;2022-09-21T21:04:55;1.20;;;0.80;;
33188;SDS011;52601;53.070;10.600;2022-09-21T21:07:41;0.93;;;0.70;;
33188;SDS011;52601;53.070;10.600;2022-09-21T21:10:26;2.58;;;0.65;;
33188;SDS011;52601;53.070;10.600;2022-09-21T21:13:12;1.27;;;0.70;;
33188;SDS011;52601;53.070;10.600;2022-09-21T21:15:57;0.60;;;0.60;;
33188;SDS011;52601;53.070;10.600;2022-09-21T21:18:44;2.38;;;0.60;;
33188;SDS011;52601;53.070;10.600;2022-09-21T21:21:29;0.60;;;0.47;;
33188;SDS011;52601;53.070;10.600;2022-09-21T21:24:15;2.13;;;0.80;;
33188;SDS011;52601;53.070;10.600;2022-09-21T21:27:20;1.70;;;0.52;;
33188;SDS011;52601;53.070;10.600;2022-09-21T21:30:06;1.50;;;0.50;;
33188;SDS011;52601;53.070;10.600;2022-09-21T21:32:54;0.90;;;0.70;;
33188;SDS011;52601;53.070;10.600;2022-09-21T21:35:40;0.85;;;0.57;;
33188;SDS011;52601;53.070;10.600;2022-09-21T21:38:26;0.60;;;0.60;;
33188;SDS011;52601;53.070;10.600;2022-09-21T21:41:11;0.88;;;0.70;;
33188;SDS011;52601;53.070;10.600;2022-09-21T21:43:58;0.82;;;0.60;;
33188;SDS011;52601;53.070;10.600;2022-09-21T21:46:44;2.33;;;1.20;;
33188;SDS011;52601;53.070;10.600;2022-09-21T21:49:29;3.55;;;1.40;;
33188;SDS011;52601;53.070;10.600;2022-09-21T21:52:15;3.28;;;1.52;;
33188;SDS011;52601;53.070;10.600;2022-09-21T21:55:01;4.60;;;1.80;;
33188;SDS011;52601;53.070;10.600;2022-09-21T21:57:47;5.57;;;0.98;;
33188;SDS011;52601;53.070;10.600;2022-09-21T22:00:33;3.47;;;1.17;;
33188;SDS011;52601;53.070;10.600;2022-09-21T22:03:18;2.38;;;0.60;;
33188;SDS011;52601;53.070;10.600;2022-09-21T22:06:04;7.88;;;1.08;;
33188;SDS011;52601;53.070;10.600;2022-09-21T22:08:51;2.55;;;0.98;;
33188;SDS011;52601;53.070;10.600;2022-09-21T22:11:37;6.85;;;1.40;;
33188;SDS011;52601;53.070;10.600;2022-09-21T22:14:23;1.42;;;0.95;;
33188;SDS011;52601;53.070;10.600;2022-09-21T22:17:08;2.17;;;1.17;;
33188;SDS011;52601;53.070;10.600;2022-09-21T22:19:54;2.13;;;1.08;;
33188;SDS011;52601;53.070;10.600;2022-09-21T22:22:39;2.53;;;0.90;;
33188;SDS011;52601;53.070;10.600;2022-09-21T22:25:25;1.45;;;1.00;;
33188;SDS011;52601;53.070;10.600;2022-09-21T22:28:10;1.30;;;1.00;;
33188;SDS011;52601;53.070;10.600;2022-09-21T22:30:56;2.27;;;0.90;;
33188;SDS011;52601;53.070;10.600;2022-09-21T22:33:43;1.10;;;0.73;;
33188;SDS011;52601;53.070;10.600;2022-09-21T22:36:30;1.48;;;1.00;;
33188;SDS011;52601;53.070;10.600;2022-09-21T22:39:17;2.40;;;1.00;;
33188;SDS011;52601;53.070;10.600;2022-09-21T22:42:02;4.28;;;0.95;;
33188;SDS011;52601;53.070;10.600;2022-09-21T22:44:48;1.48;;;1.17;;
33188;SDS011;52601;53.070;10.600;2022-09-21T22:47:33;2.83;;;1.23;;
33188;SDS011;52601;53.070;10.600;2022-09-21T22:50:19;1.70;;;1.25;;
33188;SDS011;52601;53.070;10.600;2022-09-21T22:53:04;1.58;;;1.02;;
33188;SDS011;52601;53.070;10.600;2022-09-21T22:56:00;2.03;;;1.00;;
33188;SDS011;52601;53.070;10.600;2022-09-21T22:58:50;2.70;;;1.20;;
33188;SDS011;52601;53.070;10.600;2022-09-21T23:01:38;1.95;;;1.20;;
33188;SDS011;52601;53.070;10.600;2022-09-21T23:04:24;2.47;;;1.20;;
33188;SDS011;52601;53.070;10.600;2022-09-21T23:07:10;1.52;;;0.98;;
33188;SDS011;52601;53.070;10.600;2022-09-21T23:09:55;4.57;;;0.90;;
33188;SDS011;52601;53.070;10.600;2022-09-21T23:12:41;5.00;;;1.00;;
33188;SDS011;52601;53.070;10.600;2022-09-21T23:15:26;2.00;;;0.90;;
33188;SDS011;52601;53.070;10.600;2022-09-21T23:18:12;1.75;;;0.75;;
33188;SDS011;52601;53.070;10.600;2022-09-21T23:20:58;0.73;;;0.60;;
33188;SDS011;52601;53.070;10.600;2022-09-21T23:23:45;0.80;;;0.77;;
33188;SDS011;52601;53.070;10.600;2022-09-21T23:26:31;2.50;;;0.90;;
33188;SDS011;52601;53.070;10.600;2022-09-21T23:29:18;0.95;;;0.60;;
33188;SDS011;52601;53.070;10.600;2022-09-21T23:32:03;1.30;;;0.63;;
33188;SDS011;52601;53.070;10.600;2022-09-21T23:34:49;0.95;;;0.60;;
33188;SDS011;52601;53.070;10.600;2022-09-21T23:37:34;1.00;;;0.90;;
33188;SDS011;52601;53.070;10.600;2022-09-21T23:40:19;1.15;;;0.65;;
33188;SDS011;52601;53.070;10.600;2022-09-21T23:43:05;3.83;;;0.90;;
33188;SDS011;52601;53.070;10.600;2022-09-21T23:45:50;2.50;;;1.00;;
33188;SDS011;52601;53.070;10.600;2022-09-21T23:48:37;1.50;;;0.80;;
33188;SDS011;52601;53.070;10.600;2022-09-21T23:51:22;1.73;;;0.90;;
33188;SDS011;52601;53.070;10.600;2022-09-21T23:54:08;1.27;;;0.80;;
33188;SDS011;52601;53.070;10.600;2022-09-21T23:56:54;3.35;;;0.60;;
33188;SDS011;52601;53.070;10.600;2022-09-21T23:59:39;1.30;;;0.70;;
